createdAt,value
2022-11-01T00:02:15.872Z,3.58
2022-11-01T00:04:43.057Z,4.43
2022-11-01T00:07:10.079Z,6.03
2022-11-01T00:09:40.207Z,4.38
2022-11-01T00:12:09.517Z,3.45
2022-11-01T00:14:36.603Z,3.50
2022-11-01T00:17:03.731Z,3.03
2022-11-01T00:19:30.878Z,9.30
2022-11-01T00:21:57.817Z,3.00
2022-11-01T00:24:25.307Z,3.83
2022-11-01T00:26:52.733Z,4.15
2022-11-01T00:29:19.747Z,5.50
2022-11-01T00:31:46.626Z,4.70
2022-11-01T00:34:13.494Z,2.55
2022-11-01T00:36:40.400Z,5.28
2022-11-01T00:39:07.862Z,3.95
2022-11-01T00:41:35.524Z,3.22
2022-11-01T00:44:02.916Z,2.85
2022-11-01T00:46:30.847Z,3.13
2022-11-01T00:48:57.980Z,2.38
2022-11-01T00:51:25.590Z,12.52
2022-11-01T00:53:52.536Z,3.42
2022-11-01T00:56:19.480Z,3.47
2022-11-01T00:58:46.424Z,3.67
2022-11-01T01:01:13.775Z,3.42
2022-11-01T01:03:40.836Z,5.65
2022-11-01T01:06:07.855Z,3.45
2022-11-01T01:08:34.983Z,4.45
2022-11-01T01:11:02.048Z,3.22
2022-11-01T01:13:29.328Z,3.00
2022-11-01T01:15:57.671Z,4.72
2022-11-01T01:18:24.644Z,5.93
2022-11-01T01:20:51.685Z,3.55
2022-11-01T01:23:18.667Z,3.92
2022-11-01T01:25:45.631Z,3.20
2022-11-01T01:28:12.673Z,5.18
2022-11-01T01:30:41.358Z,3.53
2022-11-01T01:33:08.851Z,6.97
2022-11-01T01:35:36.126Z,2.78
2022-11-01T01:38:03.412Z,4.82
2022-11-01T01:40:31.932Z,3.67
2022-11-01T01:42:58.911Z,3.75
2022-11-01T01:45:35.202Z,3.70
2022-11-01T01:48:11.481Z,3.20
2022-11-01T01:50:51.533Z,2.45
2022-11-01T01:53:28.183Z,3.75
2022-11-01T01:56:05.878Z,4.68
2022-11-01T01:58:38.620Z,6.47
2022-11-01T02:01:05.960Z,6.35
2022-11-01T02:03:35.483Z,2.80
2022-11-01T02:06:08.676Z,4.05
2022-11-01T02:08:39.056Z,3.38
2022-11-01T02:11:07.958Z,2.78
2022-11-01T02:13:36.161Z,2.90
2022-11-01T02:16:20.410Z,2.95
2022-11-01T02:18:57.846Z,2.17
2022-11-01T02:21:52.633Z,2.92
2022-11-01T02:24:22.440Z,3.60
2022-11-01T02:27:28.059Z,15.13
2022-11-01T02:30:04.089Z,3.83
2022-11-01T02:32:52.505Z,10.98
2022-11-01T02:35:33.187Z,4.85
2022-11-01T02:38:24.092Z,5.80
2022-11-01T02:41:11.115Z,5.88
2022-11-01T02:43:51.446Z,5.93
2022-11-01T02:46:39.915Z,3.85
2022-11-01T02:49:10.285Z,6.03
2022-11-01T02:51:39.360Z,11.32
2022-11-01T02:54:13.742Z,5.63
2022-11-01T02:56:41.175Z,8.30
2022-11-01T02:59:18.389Z,8.55
2022-11-01T03:01:50.730Z,8.00
2022-11-01T03:04:17.744Z,8.88
2022-11-01T03:06:53.071Z,4.82
2022-11-01T03:09:20.268Z,5.22
2022-11-01T03:12:03.950Z,7.50
2022-11-01T03:14:55.120Z,4.88
2022-11-01T03:17:41.672Z,5.28
2022-11-01T03:20:18.959Z,6.80
2022-11-01T03:22:59.084Z,5.93
2022-11-01T03:25:40.922Z,6.20
2022-11-01T03:28:29.515Z,7.43
2022-11-01T03:31:03.774Z,6.03
2022-11-01T03:33:34.462Z,5.68
2022-11-01T03:36:13.592Z,5.07
2022-11-01T03:38:48.802Z,6.20
2022-11-01T03:41:20.024Z,7.22
2022-11-01T03:43:47.969Z,6.47
2022-11-01T03:46:16.367Z,10.68
2022-11-01T03:48:43.476Z,7.45
2022-11-01T03:51:10.731Z,11.20
2022-11-01T03:53:38.176Z,8.73
2022-11-01T03:56:05.402Z,6.47
2022-11-01T03:58:42.074Z,7.72
2022-11-01T04:01:11.158Z,10.75
2022-11-01T04:03:38.636Z,7.93
2022-11-01T04:06:05.824Z,8.48
2022-11-01T04:08:33.271Z,8.93
2022-11-01T04:11:00.361Z,5.15
2022-11-01T04:13:27.355Z,6.55
2022-11-01T04:16:12.898Z,5.43
2022-11-01T04:19:14.738Z,10.50
2022-11-01T04:21:41.797Z,6.72
2022-11-01T04:24:09.738Z,8.07
2022-11-01T04:26:36.694Z,5.28
2022-11-01T04:29:03.812Z,7.45
2022-11-01T04:31:31.889Z,5.38
2022-11-01T04:34:00.147Z,7.75
2022-11-01T04:36:35.068Z,6.68
2022-11-01T04:39:11.052Z,4.67
2022-11-01T04:41:38.064Z,8.15
2022-11-01T04:44:05.678Z,6.97
2022-11-01T04:46:32.888Z,9.35
2022-11-01T04:48:59.915Z,15.20
2022-11-01T04:51:26.922Z,8.43
2022-11-01T04:53:53.975Z,11.23
2022-11-01T04:56:20.928Z,18.48
2022-11-01T04:58:47.872Z,9.90
2022-11-01T05:01:15.451Z,7.60
2022-11-01T05:03:42.853Z,7.53
2022-11-01T05:06:10.313Z,10.32
2022-11-01T05:08:37.370Z,7.35
2022-11-01T05:11:04.304Z,8.15
2022-11-01T05:13:31.300Z,13.05
2022-11-01T05:18:45.421Z,7.35
2022-11-01T05:21:12.596Z,9.20
2022-11-01T05:23:39.763Z,6.93
2022-11-01T05:26:06.872Z,7.80
2022-11-01T05:28:34.812Z,6.95
2022-11-01T05:31:02.121Z,14.82
2022-11-01T05:33:29.151Z,9.45
2022-11-01T05:35:56.196Z,9.00
2022-11-01T05:38:23.247Z,13.80
2022-11-01T05:40:50.752Z,11.20
2022-11-01T05:43:17.816Z,14.13
2022-11-01T05:45:44.830Z,15.65
2022-11-01T05:48:12.284Z,11.70
2022-11-01T05:50:39.207Z,13.05
2022-11-01T05:53:08.324Z,14.82
2022-11-01T05:55:36.649Z,8.13
2022-11-01T05:58:04.351Z,8.10
2022-11-01T06:00:32.092Z,10.93
2022-11-01T06:02:59.944Z,7.03
2022-11-01T06:05:28.089Z,8.25
2022-11-01T06:07:55.234Z,7.35
2022-11-01T06:10:22.563Z,9.50
2022-11-01T06:12:49.869Z,9.70
2022-11-01T06:15:17.111Z,8.77
2022-11-01T06:17:44.137Z,9.32
2022-11-01T06:20:13.364Z,7.80
2022-11-01T06:22:42.650Z,10.20
2022-11-01T06:25:10.509Z,13.40
2022-11-01T06:27:37.941Z,8.82
2022-11-01T06:30:05.664Z,8.45
2022-11-01T06:32:32.883Z,13.68
2022-11-01T06:35:00.188Z,16.00
2022-11-01T06:37:27.522Z,11.45
2022-11-01T06:39:55.092Z,7.90
2022-11-01T06:42:22.397Z,12.10
2022-11-01T06:44:49.428Z,6.88
2022-11-01T06:47:16.460Z,11.27
2022-11-01T06:49:43.573Z,8.38
2022-11-01T07:28:59.240Z,6.85
2022-11-01T07:31:26.673Z,5.97
2022-11-01T07:33:57.408Z,6.72
2022-11-01T07:36:24.710Z,11.20
2022-11-01T07:38:51.936Z,6.78
2022-11-01T07:41:19.278Z,6.68
2022-11-01T07:43:46.410Z,6.95
2022-11-01T07:46:13.749Z,9.70
2022-11-01T07:48:40.899Z,7.28
2022-11-01T07:51:09.867Z,9.30
2022-11-01T07:53:37.808Z,11.77
2022-11-01T07:56:08.025Z,5.70
2022-11-01T07:58:38.228Z,15.32
2022-11-01T08:05:18.929Z,4.88
2022-11-01T08:07:46.042Z,5.25
2022-11-01T08:10:13.369Z,5.93
2022-11-01T08:12:40.435Z,5.95
2022-11-01T08:15:08.181Z,6.22
2022-11-01T08:17:35.151Z,7.43
2022-11-01T08:20:02.580Z,5.00
2022-11-01T08:22:29.589Z,8.57
2022-11-01T08:24:56.797Z,7.13
2022-11-01T08:27:23.985Z,5.85
2022-11-01T08:29:51.275Z,6.90
2022-11-01T08:36:24.145Z,8.98
2022-11-01T08:38:51.282Z,5.97
2022-11-01T08:41:18.401Z,4.90
2022-11-01T08:43:45.503Z,4.72
2022-11-01T08:46:12.657Z,6.00
2022-11-01T08:48:39.769Z,3.85
2022-11-01T08:51:07.081Z,6.40
2022-11-01T08:53:34.098Z,3.88
2022-11-01T08:56:01.108Z,6.80
2022-11-01T08:58:28.425Z,6.95
2022-11-01T09:00:55.720Z,3.13
2022-11-01T09:03:22.843Z,3.92
2022-11-01T09:05:50.000Z,7.70
2022-11-01T09:08:16.953Z,4.10
2022-11-01T09:10:43.882Z,2.75
2022-11-01T09:13:10.951Z,3.63
2022-11-01T09:15:38.234Z,3.47
2022-11-01T09:18:07.194Z,3.40
2022-11-01T09:20:34.509Z,9.32
2022-11-01T09:23:01.583Z,3.70
2022-11-01T09:25:29.177Z,6.57
2022-11-01T09:27:58.000Z,6.60
2022-11-01T09:30:26.949Z,5.05
2022-11-01T09:33:08.036Z,3.15
2022-11-01T09:35:35.728Z,2.47
2022-11-01T09:38:04.239Z,3.80
2022-11-01T09:40:41.152Z,4.68
2022-11-01T09:43:13.482Z,3.63
2022-11-01T09:45:44.913Z,10.70
2022-11-01T09:48:18.609Z,3.45
2022-11-01T09:50:46.145Z,4.40
2022-11-01T09:53:26.798Z,3.17
2022-11-01T09:56:15.759Z,4.50
2022-11-01T09:58:56.817Z,5.38
2022-11-01T10:01:44.093Z,3.78
2022-11-01T10:04:30.068Z,4.00
2022-11-01T10:09:48.650Z,4.75
2022-11-01T10:12:33.345Z,2.88
2022-11-01T10:15:34.583Z,4.80
2022-11-01T10:18:29.072Z,4.03
2022-11-01T10:20:58.452Z,3.30
2022-11-01T10:23:53.215Z,5.65
2022-11-01T10:26:26.947Z,3.30
2022-11-01T10:28:57.747Z,4.20
2022-11-01T10:31:27.911Z,7.85
2022-11-01T10:34:15.156Z,2.88
2022-11-01T10:36:45.209Z,5.82
2022-11-01T10:42:23.665Z,5.25
2022-11-01T10:44:55.541Z,4.68
2022-11-01T10:47:25.089Z,5.50
2022-11-01T10:50:06.033Z,3.67
2022-11-01T10:53:00.940Z,4.55
2022-11-01T10:55:42.382Z,5.20
2022-11-01T10:58:28.566Z,5.35
2022-11-01T11:00:56.176Z,6.45
2022-11-01T11:03:27.633Z,6.10
2022-11-01T11:05:56.491Z,4.82
2022-11-01T11:08:26.126Z,4.25
2022-11-01T11:13:55.411Z,4.35
2022-11-01T11:16:44.849Z,4.53
2022-11-01T11:19:12.361Z,10.63
2022-11-01T11:21:39.667Z,4.38
2022-11-01T11:24:19.839Z,3.58
2022-11-01T11:27:22.301Z,6.78
2022-11-01T11:30:06.944Z,5.45
2022-11-01T11:32:39.973Z,4.05
2022-11-01T11:35:22.796Z,4.60
2022-11-01T11:38:00.888Z,6.15
2022-11-01T11:40:48.329Z,6.63
2022-11-01T11:43:56.229Z,5.85
2022-11-01T11:46:32.853Z,8.98
2022-11-01T11:49:04.788Z,4.80
2022-11-01T11:51:38.196Z,4.60
2022-11-01T11:54:37.818Z,5.22
2022-11-01T11:57:24.689Z,7.00
2022-11-01T11:59:58.420Z,8.45
2022-11-01T12:02:33.511Z,7.80
2022-11-01T12:07:38.040Z,4.43
2022-11-01T12:10:10.358Z,7.38
2022-11-01T12:12:40.999Z,8.05
2022-11-01T12:15:27.707Z,5.47
2022-11-01T12:17:55.881Z,12.35
2022-11-01T12:20:26.638Z,5.85
2022-11-01T12:23:07.379Z,5.03
2022-11-01T12:25:36.583Z,3.90
2022-11-01T12:28:42.075Z,8.63
2022-11-01T12:31:17.636Z,4.90
2022-11-01T12:36:47.478Z,6.28
2022-11-01T12:39:51.760Z,7.53
2022-11-01T12:42:37.546Z,12.57
2022-11-01T12:47:45.858Z,6.35
2022-11-01T12:50:32.702Z,7.55
2022-11-01T12:53:38.558Z,7.97
2022-11-01T12:56:03.944Z,6.35
2022-11-01T12:58:36.370Z,7.45
2022-11-01T13:01:42.172Z,7.68
2022-11-01T13:04:31.498Z,7.95
2022-11-01T13:07:07.991Z,8.70
2022-11-01T13:10:03.127Z,11.02
2022-11-01T13:13:05.600Z,12.20
2022-11-01T13:15:48.858Z,12.13
2022-11-01T13:18:40.257Z,4.85
2022-11-01T13:21:20.144Z,13.65
2022-11-01T13:24:45.414Z,21.55
2022-11-01T13:27:43.676Z,11.70
2022-11-01T13:30:19.757Z,17.85
2022-11-01T13:32:51.227Z,5.28
2022-11-01T13:39:38.254Z,5.07
2022-11-01T13:42:26.744Z,6.70
2022-11-01T13:45:44.389Z,5.13
2022-11-01T13:52:44.183Z,3.42
2022-11-01T13:54:55.257Z,6.95
2022-11-01T13:57:54.267Z,8.02
2022-11-01T14:00:55.530Z,4.63
2022-11-01T14:03:38.900Z,6.28
2022-11-01T14:06:34.566Z,10.07
2022-11-01T14:09:40.108Z,30.88
2022-11-01T14:12:13.245Z,45.83
2022-11-01T14:16:26.728Z,66.75
2022-11-01T14:17:52.819Z,38.10
2022-11-01T14:20:32.215Z,34.33
2022-11-01T14:23:35.794Z,23.60
2022-11-01T14:26:20.643Z,8.02
2022-11-01T14:29:09.023Z,7.78
2022-11-01T14:32:09.050Z,13.15
2022-11-01T14:34:41.846Z,16.20
2022-11-01T14:37:22.793Z,13.80
2022-11-01T14:40:10.234Z,11.20
2022-11-01T14:42:50.311Z,17.15
2022-11-01T14:45:36.053Z,16.58
2022-11-01T14:48:18.714Z,20.17
2022-11-01T14:51:12.908Z,24.35
2022-11-01T14:53:41.679Z,23.80
2022-11-01T14:56:16.688Z,27.17
2022-11-01T14:58:44.667Z,28.10
2022-11-01T15:01:25.371Z,33.72
2022-11-01T15:03:58.918Z,21.55
2022-11-01T15:06:30.631Z,26.08
2022-11-01T15:09:07.603Z,50.13
2022-11-01T15:11:37.984Z,39.33
2022-11-01T15:14:09.536Z,33.97
2022-11-01T15:16:37.244Z,48.50
2022-11-01T15:19:08.276Z,41.05
2022-11-01T15:21:47.458Z,45.42
2022-11-01T15:24:28.612Z,46.72
2022-11-01T15:26:56.048Z,35.03
2022-11-01T15:29:25.242Z,37.53
2022-11-01T15:32:01.226Z,23.33
2022-11-01T15:34:30.958Z,26.35
2022-11-01T15:37:00.147Z,32.17
2022-11-01T15:39:30.754Z,20.40
2022-11-01T15:41:58.125Z,18.50
2022-11-01T15:44:27.852Z,16.42
2022-11-01T15:46:59.027Z,16.83
2022-11-01T15:49:34.752Z,20.88
2022-11-01T15:52:05.524Z,21.13
2022-11-01T15:54:32.764Z,23.05
2022-11-01T15:57:11.467Z,20.58
2022-11-01T16:00:09.006Z,14.60
2022-11-01T16:03:07.859Z,21.27
2022-11-01T16:05:45.795Z,29.88
2022-11-01T16:08:25.047Z,25.65
2022-11-01T16:11:34.910Z,29.20
2022-11-01T16:14:37.259Z,29.83
2022-11-01T16:17:41.231Z,26.75
2022-11-01T16:21:12.328Z,17.02
2022-11-01T16:23:58.299Z,24.13
2022-11-01T16:26:25.986Z,18.52
2022-11-01T16:28:55.113Z,28.25
2022-11-01T16:31:28.983Z,20.55
2022-11-01T16:34:00.484Z,22.42
2022-11-01T16:36:37.044Z,24.45
2022-11-01T16:39:28.057Z,18.90
2022-11-01T16:41:55.338Z,18.58
2022-11-01T16:44:22.769Z,18.58
2022-11-01T16:46:50.509Z,38.67
2022-11-01T16:49:22.900Z,34.95
2022-11-01T16:51:51.687Z,15.98
2022-11-01T16:54:18.877Z,24.27
2022-11-01T16:56:48.497Z,19.75
2022-11-01T16:59:38.486Z,21.85
2022-11-01T17:02:28.580Z,19.40
2022-11-01T17:05:19.100Z,13.35
2022-11-01T17:07:46.215Z,20.75
2022-11-01T17:10:22.570Z,19.48
2022-11-01T17:12:50.698Z,20.40
2022-11-01T17:15:19.732Z,14.40
2022-11-01T17:17:48.851Z,14.32
2022-11-01T17:20:23.570Z,21.20
2022-11-01T17:22:52.057Z,21.57
2022-11-01T17:25:22.987Z,26.90
2022-11-01T17:27:51.989Z,21.40
2022-11-01T17:30:20.295Z,27.27
2022-11-01T17:32:47.760Z,19.58
2022-11-01T17:35:15.776Z,19.88
2022-11-01T17:37:49.377Z,30.38
2022-11-01T17:40:22.758Z,19.88
2022-11-01T17:42:49.982Z,22.27
2022-11-01T17:45:21.190Z,25.88
2022-11-01T17:47:48.768Z,25.70
2022-11-01T17:50:16.636Z,22.73
2022-11-01T17:52:44.250Z,25.30
2022-11-01T17:55:12.260Z,20.17
2022-11-01T17:58:08.599Z,24.17
2022-11-01T18:04:08.551Z,17.13
2022-11-01T18:06:38.313Z,28.98
2022-11-01T18:09:19.240Z,24.48
2022-11-01T18:11:57.160Z,16.77
2022-11-01T18:14:56.863Z,20.63
2022-11-01T18:17:49.169Z,25.27
2022-11-01T18:20:55.366Z,23.50
2022-11-01T18:23:30.822Z,28.15
2022-11-01T18:26:04.102Z,16.85
2022-11-01T18:28:45.820Z,25.45
2022-11-01T18:31:45.910Z,24.30
2022-11-01T18:34:33.532Z,35.08
2022-11-01T18:37:43.603Z,24.02
2022-11-01T18:40:44.199Z,32.85
2022-11-01T18:43:11.314Z,23.90
2022-11-01T18:48:48.255Z,21.73
2022-11-01T18:51:39.121Z,19.52
2022-11-01T18:54:34.262Z,27.27
2022-11-01T18:57:19.046Z,13.30
2022-11-01T18:59:53.081Z,23.08
2022-11-01T19:02:25.027Z,19.80
2022-11-01T19:05:00.331Z,23.90
2022-11-01T19:07:39.328Z,29.15
2022-11-01T19:10:20.177Z,16.38
2022-11-01T19:12:57.422Z,20.23
2022-11-01T19:15:28.456Z,17.45
2022-11-01T19:18:12.283Z,15.65
2022-11-01T19:20:50.115Z,13.50
2022-11-01T19:23:24.545Z,20.63
2022-11-01T19:25:56.459Z,12.87
2022-11-01T19:28:35.739Z,20.08
2022-11-01T19:31:16.507Z,17.92
2022-11-01T19:33:50.875Z,15.30
2022-11-01T19:36:20.532Z,13.68
2022-11-01T19:38:51.170Z,12.75
2022-11-01T19:41:30.513Z,13.93
2022-11-01T19:44:13.319Z,11.55
2022-11-01T19:47:01.571Z,17.63
2022-11-01T20:47:05.430Z,9.93
2022-11-01T20:49:32.736Z,7.22
2022-11-01T20:52:13.445Z,10.77
2022-11-01T20:54:47.302Z,9.75
2022-11-01T20:57:27.152Z,11.90
2022-11-01T20:59:58.710Z,13.73
2022-11-01T21:02:34.898Z,12.38
2022-11-01T21:05:07.510Z,12.05
2022-11-01T21:07:37.911Z,11.88
2022-11-01T21:10:26.969Z,10.65
2022-11-01T21:12:56.780Z,11.60
2022-11-01T21:15:26.871Z,9.10
2022-11-01T21:18:14.484Z,12.38
2022-11-01T21:20:46.497Z,12.05
2022-11-01T21:23:28.960Z,9.93
2022-11-01T21:25:59.758Z,12.50
2022-11-01T21:28:40.410Z,10.30
2022-11-01T21:31:10.723Z,10.32
2022-11-01T21:33:41.058Z,9.20
2022-11-01T21:36:26.342Z,16.27
2022-11-01T21:38:57.365Z,13.43
2022-11-01T21:41:45.776Z,12.43
2022-11-01T21:44:19.429Z,11.70
2022-11-01T21:46:53.833Z,16.55
2022-11-01T21:49:28.561Z,14.45
2022-11-01T21:52:00.654Z,12.70
2022-11-01T21:54:30.047Z,10.38
2022-11-01T21:56:57.930Z,11.02
2022-11-01T21:59:26.292Z,9.18
2022-11-01T22:01:55.218Z,12.77
2022-11-01T22:04:23.424Z,12.18
2022-11-01T22:06:52.017Z,14.50
2022-11-01T22:09:19.963Z,14.63
2022-11-01T22:11:50.245Z,10.85
2022-11-01T22:14:18.218Z,16.65
2022-11-01T22:16:45.442Z,12.85
2022-11-01T22:19:12.674Z,14.60
2022-11-01T22:21:39.861Z,13.48
2022-11-01T22:24:07.348Z,14.68
2022-11-01T22:26:34.582Z,15.27
2022-11-01T22:29:01.957Z,17.77
2022-11-01T22:31:29.207Z,14.63
2022-11-01T22:33:57.616Z,18.60
2022-11-01T22:36:27.650Z,14.80
2022-11-01T22:38:56.094Z,12.93
2022-11-01T22:41:36.637Z,13.85
2022-11-01T22:44:12.310Z,14.85
2022-11-01T22:46:58.753Z,16.25
2022-11-01T22:49:55.143Z,12.63
2022-11-01T22:52:31.185Z,14.65
2022-11-01T22:55:34.569Z,12.57
2022-11-01T22:58:32.741Z,12.55
2022-11-01T23:01:02.374Z,14.30
2022-11-01T23:03:35.638Z,18.02
2022-11-01T23:06:21.597Z,20.45
2022-11-01T23:11:39.252Z,14.88
2022-11-01T23:14:37.713Z,17.48
2022-11-01T23:17:23.850Z,18.65
2022-11-01T23:19:53.747Z,17.23
2022-11-01T23:22:24.551Z,18.88
2022-11-01T23:24:53.954Z,18.02
2022-11-01T23:27:24.609Z,15.70
2022-11-01T23:29:54.963Z,19.73
2022-11-01T23:32:22.240Z,17.10
2022-11-01T23:34:50.648Z,14.60
2022-11-01T23:37:22.712Z,25.85
2022-11-01T23:39:50.242Z,21.55
2022-11-01T23:42:23.874Z,14.40
2022-11-01T23:45:01.174Z,20.42
2022-11-01T23:47:37.534Z,18.73
2022-11-01T23:50:14.004Z,15.05
2022-11-01T23:52:46.843Z,19.48
2022-11-01T23:55:26.215Z,19.60
2022-11-01T23:57:59.028Z,16.27
